AirNav   Air Wisconsin pilot careers
 
 1099 users online  

2R6 Bunkie Municipal Airport
Bunkie, Louisiana, USA

GOING TO BUNKIE?


FAA INFORMATION EFFECTIVE 12 SEPTEMBER 2019

Location

FAA Identifier: 2R6
Lat/Long: 30-57-24.2900N 092-14-02.7590W
30-57.404833N 092-14.045983W
30.9567472,-92.2340997
(estimated)
Elevation: 62 ft. / 18.9 m (surveyed)
Variation: 01E (2010)
From city: 2 miles S of BUNKIE, LA
Time zone: UTC -5 (UTC -6 during Standard Time)
Zip code: 71322

Airport Operations

Airport use: Open to the public
Activation date: 03/1950
Control tower: no
ARTCC: HOUSTON CENTER
FSS: DE RIDDER FLIGHT SERVICE STATION
NOTAMs facility: DRI (NOTAM-D service available)
Attendance: UNATNDD
Wind indicator: lighted
Segmented circle: no
Lights: DUSK-DAWN. MIRL RY 18/36, REIL RYS 18 & 36 PRESET LOW INTST DUSK-DAWN; TO INCR INTST ACTVT - CTAF.
Beacon: white-green (lighted land airport)
Operates sunset to sunrise.

Airport Communications

CTAF: 122.9
POLK APPROACH: 125.4
POLK DEPARTURE: 125.4

Nearby radio navigation aids

VOR radial/distance  VOR name  Freq  Var
AEXr140/22.6ALEXANDRIA VORTAC116.1003E

 
NDB name  Hdg/Dist  Freq  Var  ID
DURALDE023/26.226302EECY . -.-. -.--

Airport Services

Parking: hangars and tiedowns
Airframe service: NONE
Powerplant service: NONE
Bottled oxygen: NONE
Bulk oxygen: NONE

Runway Information

Runway 18/36

Dimensions: 3005 x 75 ft. / 916 x 23 m
Surface: asphalt, in good condition
Weight bearing capacity: 
Single wheel: 8.0
Runway edge lights: medium intensity
RUNWAY 18  RUNWAY 36
Latitude: 30-57.652300N30-57.156633N
Longitude: 092-14.045783W092-14.044583W
Elevation: 59.0 ft.59.0 ft.
Traffic pattern: leftleft
Runway heading: 179 magnetic, 180 true359 magnetic, 360 true
Markings: nonprecision, in good conditionnonprecision, in good condition
Visual slope indicator: 2-light PAPI on left (3.00 degrees glide path)2-light PAPI on left (3.25 degrees glide path)
Runway end identifier lights: yesyes
Touchdown point: yes, no lightsyes, no lights
Obstructions: none97 ft. trees, 2752 ft. from runway, 397 ft. left of centerline, 26:1 slope to clear

Airport Ownership and Management from official FAA records

Ownership: Publicly-owned
Owner: TOWN OF BUNKIE
PO BOX 630
BUNKIE, LA 71322
Phone 318-346-7663
Manager: FRED VOLLMAN
PO BOX 220
BUNKIE, LA 71322
Phone 318-346-2371

Airport Operational Statistics

Aircraft based on the field: 8
Single engine airplanes: 6
Ultralights: 2
    
Aircraft operations: avg 125/week *
69% local general aviation
31% transient general aviation
* for 12-month period ending 07 August 2018

Additional Remarks

100LL EMERG FUEL AVBL CALL 318-346-2371.
FOR CD CTC HOUSTON ARTCC AT 281-230-5622.

Instrument Procedures

NOTE: All procedures below are presented as PDF files. If you need a reader for these files, you should download the free Adobe Reader.

NOT FOR NAVIGATION. Please procure official charts for flight.
FAA instrument procedures published for use from 12 September 2019 at 0901Z to 10 October 2019 at 0900Z.

 
IAPs - Instrument Approach Procedures
RNAV (GPS) RWY 18   download (178KB)
RNAV (GPS) RWY 36   download (174KB)
VOR/DME-A   download (166KB)
NOTE: Special Take-Off Minimums/Departure Procedures apply   download (116KB)

Other nearby airports with instrument procedures:

KMKV - Marksville Municipal Airport (12 nm NE)
KOPL - St Landry Parish Airport-Ahart Field (25 nm S)
KACP - Allen Parish Airport (26 nm SW)
KESF - Esler Regional Airport (26 nm N)
KAEX - Alexandria International Airport (27 nm NW)
 
Loc | Ops | Rwys | IFR | FBO | Links
Com | Nav | Svcs | Stats | Notes
Area around 2R6 (Bunkie Municipal Airport)
 
Road maps at: MapQuest Bing Google
 
Aerial photo
WARNING: Photo may not be current or correct
Aerial photo of 2R6 (Bunkie Municipal Airport)
Photo taken 11-Sep-2010
looking north.

Do you have a better or more recent aerial photo of Bunkie Municipal Airport that you would like to share? If so, please send us your photo.

 
Sectional chart

 
Airport distance calculator
Flying to Bunkie Municipal Airport? Find the distance to fly.

From to 2R6

Sunrise and sunset
Times for 16-Sep-2019
 Local
(UTC-5)
 Zulu
(UTC)
Morning civil twilight06:3111:31
Sunrise06:5511:55
Sunset19:1300:13
Evening civil twilight19:3700:37

Current date and time
Zulu (UTC)  16-Sep-2019 23:44:59
Local (UTC-5)  16-Sep-2019 18:44:59
 
METAR
KOPL 
25nm S 
162335Z AUTO 00000KT 10SM SCT020 27/23 A2996 RMK AO2 T02700231
KACP 
26nm SW 
162343Z AUTO 00000KT 10SM CLR 26/24 A2996 RMK AO2
KESF 
27nm N 
162253Z AUTO 15008KT 10SM BKN120 29/22 A2996 RMK AO2 RAB2154E04 SLP141 P0000 T02940217
KAEX 
28nm NW 
162253Z 15008KT 10SM CLR 31/22 A2994 RMK AO2 RAE2158 SLP140 P0000 T03060217
KBKB 
35nm W 
162254Z AUTO VRB03KT 10SM CLR 28/22 A2994 RMK AO2 RAE03 SLP163 P0000 T02830217
KPOE 
40nm W 
162258Z AUTO 12005KT 10SM OVC150 27/21 A2995 RMK AO2 SLP141 T02720208
KHZR 
41nm E 
162338Z AUTO 12005KT 10SM CLR 28/23 A2997 RMK AO2
KLFT 
47nm S 
162340Z 00000KT 10SM BKN017 BKN025 BKN031 27/24 A2996 RMK AO2 T02720244
K3R7 
48nm SW 
162335Z AUTO 08008KT CLR 27/23 A2995 RMK AO2 T02700234 PWINO
TAF
KAEX 
28nm NW 
161720Z 1618/1718 09008KT P6SM SCT050 SCT250 FM170200 VRB04KT P6SM SCT250 FM171400 09006KT P6SM SCT040
NOTAMs
Click for the latest NOTAMs
NOTAMs are issued by the DoD/FAA and will open in a separate window not controlled by AirNav.

 

 
 

Would you like to see your business listed on this page?

 If your business provides an interesting product or service to pilots, flight crews, aircraft, or users of the Bunkie Municipal Airport, you should consider listing it here.  To start the listing process, click on the button below
 
Add a business
 

Other Pages about Bunkie Municipal Airport

Update a link
 
Copyright © AirNav, LLC. All rights reserved. Privacy Policy  Contact